Humidity-temperature Sensor

Selected Measurement Type: Relative Humidity

 
Relative Humidity [%]     6 entries per hour
Showing data from 3/15/2016 (00:00:00 Z) to 3/8/2016 (00:01:00 Z)
Previous Next [ Day | 3-Days | 7-Days ]
First Last
Prev [ Day | 3-Days | 7-Days ] Next
First Last

Start Time:     :
End Time:     :     
Time (in GMT) :00 :50 :40 :30 :20 :10
Previous Next [ Day | 3-Days | 7-Days ]
First Last
Prev [ Day | 3-Days | 7-Days ] Next
First Last


123 => good data
MM => data is determined as missing
-- => data not received/configured
Back to Top Back to Top
3/15/2016 00:00 to 23:10 85.03 85.03 83.84 82.89 82.02 81.52
3/14/2016 23:00 to 22:10 81.86 82.42 82.30 82.95 82.75 84.30
3/14/2016 22:00 to 21:10 82.91 83.94 84.97 85.48 85.03 85.05
3/14/2016 21:00 to 20:10 84.91 85.07 85.66 87.44 88.12 84.45
3/14/2016 20:00 to 19:10 79.37 79.43 78.79 78.99 79.78 80.53
3/14/2016 19:00 to 18:10 80.04 79.76 79.35 79.41 79.31 79.05
3/14/2016 18:00 to 17:10 78.44 77.09 77.80 77.84 78.71 78.14
3/14/2016 17:00 to 16:10 77.98 77.76 78.04 78.63 78.32 79.21
3/14/2016 16:00 to 15:10 79.90 78.50 78.87 78.87 78.91 78.83
3/14/2016 15:00 to 14:10 79.07 80.65 79.58 80.34 80.85 81.94
3/14/2016 14:00 to 13:10 80.85 81.41 81.96 83.60 83.56 83.37
3/14/2016 13:00 to 12:10 83.64 83.54 82.87 82.40 82.06 82.69
3/14/2016 12:00 to 11:10 82.57 81.90 81.66 82.24 82.81 82.22
3/14/2016 11:00 to 10:10 83.88 88.00 89.40 89.30 88.73 88.63
3/14/2016 10:00 to 9:10 88.85 89.28 89.74 90.31 90.45 90.89
3/14/2016 09:00 to 8:10 91.17 91.64 92.23 92.89 93.09 92.89
3/14/2016 08:00 to 7:10 92.21 92.51 87.36 83.98 84.22 84.36
3/14/2016 07:00 to 6:10 84.49 84.10 84.91 84.28 84.38 84.18
3/14/2016 06:00 to 5:10 84.75 84.95 84.10 82.93 83.05 83.11
3/14/2016 05:00 to 4:10 82.44 82.65 82.83 83.29 81.37 82.44
3/14/2016 04:00 to 3:10 81.94 81.98 83.21 82.40 81.86 82.91
3/14/2016 03:00 to 2:10 82.53 84.30 82.49 83.05 85.15 85.66
3/14/2016 02:00 to 1:10 85.01 83.88 83.58 84.61 82.30 81.72
3/14/2016 01:00 to 0:10 81.82 81.82 81.25 81.74 81.88 81.92
3/14/2016 00:00 to 23:10 82.24 81.92 82.12 81.64 81.82 81.23
3/13/2016 23:00 to 22:10 82.99 82.75 81.50 81.78 81.56 80.57
3/13/2016 22:00 to 21:10 81.23 82.85 83.17 83.37 81.45 81.80
3/13/2016 21:00 to 20:10 81.66 80.93 81.31 82.55 82.02 83.94
3/13/2016 20:00 to 19:10 84.45 82.57 81.80 82.44 81.90 82.75
3/13/2016 19:00 to 18:10 82.44 82.30 82.30 82.34 82.22 82.06
3/13/2016 18:00 to 17:10 81.64 82.26 82.26 82.02 81.33 82.28
3/13/2016 17:00 to 16:10 83.21 85.33 83.82 84.10 82.87 83.37
3/13/2016 16:00 to 15:10 82.79 82.34 83.21 81.76 83.11 83.19
3/13/2016 15:00 to 14:10 85.01 84.47 86.06 87.32 86.06 85.40
3/13/2016 14:00 to 13:10 85.03 86.12 86.39 88.31 88.20 87.82
3/13/2016 13:00 to 12:10 86.87 86.30 86.04 85.72 84.89 85.21
3/13/2016 12:00 to 11:10 85.33 85.33 85.46 85.58 85.72 85.25
3/13/2016 11:00 to 10:10 84.61 84.49 84.47 85.25 85.31 85.09
3/13/2016 10:00 to 9:10 85.60 85.52 85.98 85.98 85.48 85.13
3/13/2016 09:00 to 8:10 84.85 85.62 85.64 87.56 91.42 83.72
3/13/2016 08:00 to 7:10 82.97 83.58 83.94 83.86 83.19 82.38
3/13/2016 07:00 to 6:10 82.71 82.20 81.37 81.82 83.07 84.18
3/13/2016 06:00 to 5:10 84.47 84.18 83.78 82.85 83.46 85.15
3/13/2016 05:00 to 4:10 84.67 84.63 84.08 84.36 85.48 84.22
3/13/2016 04:00 to 3:10 84.12 84.65 85.11 85.46 85.27 87.23
3/13/2016 03:00 to 2:10 87.64 87.86 87.70 87.68 88.00 83.96
3/13/2016 02:00 to 1:10 83.50 84.36 84.53 84.20 84.30 84.30
3/13/2016 01:00 to 0:10 84.61 83.82 83.25 83.13 83.52 82.85
3/13/2016 00:00 to 23:10 82.34 83.72 84.87 85.50 86.63 87.05
3/12/2016 23:00 to 22:10 87.62 88.51 88.75 88.59 88.93 88.85
3/12/2016 22:00 to 21:10 88.53 86.22 85.31 84.75 84.55 84.16
3/12/2016 21:00 to 20:10 83.50 82.49 81.35 81.50 82.77 82.83
3/12/2016 20:00 to 19:10 83.09 83.23 82.85 83.29 83.19 83.39
3/12/2016 19:00 to 18:10 83.11 83.84 84.69 84.36 84.20 84.24
3/12/2016 18:00 to 17:10 84.32 83.68 82.47 81.86 82.75 84.22
3/12/2016 17:00 to 16:10 84.08 82.51 83.05 84.08 85.76 85.88
3/12/2016 16:00 to 15:10 86.39 86.00 84.43 83.13 80.34 77.80
3/12/2016 15:00 to 14:10 75.45 76.06 78.34 78.32 79.09 82.08
3/12/2016 14:00 to 13:10 84.16 86.12 87.07 87.36 87.66 87.32
3/12/2016 13:00 to 12:10 85.80 86.30 88.43 87.98 88.29 88.83
3/12/2016 12:00 to 11:10 89.60 90.83 91.38 91.68 91.52 91.54
3/12/2016 11:00 to 10:10 91.68 91.78 91.94 92.02 91.54 90.95
3/12/2016 10:00 to 9:10 90.87 91.34 91.96 91.90 91.90 91.82
3/12/2016 09:00 to 8:10 91.82 91.76 91.88 92.35 92.85 93.30
3/12/2016 08:00 to 7:10 93.46 93.56 93.46 93.28 92.93 92.47
3/12/2016 07:00 to 6:10 91.62 90.67 90.00 89.01 88.97 87.74
3/12/2016 06:00 to 5:10 88.31 88.14 86.06 86.47 85.94 85.72
3/12/2016 05:00 to 4:10 85.31 86.28 86.16 86.26 86.32 86.37
3/12/2016 04:00 to 3:10 86.45 86.08 86.16 85.74 85.82 86.47
3/12/2016 03:00 to 2:10 86.47 86.91 86.57 86.91 87.19 87.01
3/12/2016 02:00 to 1:10 87.38 87.58 87.07 86.55 86.47 86.26
3/12/2016 01:00 to 0:10 86.24 86.49 86.75 86.69 86.71 85.84
3/12/2016 00:00 to 23:10 84.53 83.90 84.81 85.05 85.98 85.46
3/11/2016 23:00 to 22:10 85.05 85.70 85.96 86.00 85.98 86.39
3/11/2016 22:00 to 21:10 85.90 86.06 84.97 84.85 85.35 85.68
3/11/2016 21:00 to 20:10 85.19 83.64 84.65 85.27 84.02 81.84
3/11/2016 20:00 to 19:10 82.38 82.65 82.04 80.02 79.35 79.41
3/11/2016 19:00 to 18:10 78.99 79.33 79.66 79.09 79.29 80.53
3/11/2016 18:00 to 17:10 81.45 81.64 82.28 82.28 82.51 82.79
3/11/2016 17:00 to 16:10 83.05 83.96 84.06 83.74 76.30 72.87
3/11/2016 16:00 to 15:10 73.57 73.27 75.43 76.99 77.98 80.26
3/11/2016 15:00 to 14:10 80.48 79.96 79.86 79.05 78.48 77.96
3/11/2016 14:00 to 13:10 78.16 77.68 77.90 82.24 82.55 82.53
3/11/2016 13:00 to 12:10 82.93 85.54 87.09 87.84 87.15 86.45
3/11/2016 12:00 to 11:10 83.68 81.15 81.17 81.07 80.99 81.01
3/11/2016 11:00 to 10:10 81.31 81.56 81.70 80.99 80.59 80.91
3/11/2016 10:00 to 9:10 80.67 80.75 81.21 81.21 81.47 81.09
3/11/2016 09:00 to 8:10 80.59 82.02 81.01 82.18 82.63 83.15
3/11/2016 08:00 to 7:10 83.50 83.27 83.25 82.95 83.54 83.76
3/11/2016 07:00 to 6:10 84.06 83.78 83.78 84.10 84.28 84.22
3/11/2016 06:00 to 5:10 84.38 84.79 84.85 84.81 83.33 83.15
3/11/2016 05:00 to 4:10 82.38 80.85 79.80 78.06 77.47 77.43
3/11/2016 04:00 to 3:10 77.37 78.20 79.58 79.80 79.74 81.29
3/11/2016 03:00 to 2:10 82.73 83.17 83.19 84.43 86.04 85.33
3/11/2016 02:00 to 1:10 -- -- -- -- -- --
3/11/2016 01:00 to 0:10 81.96 80.87 81.11 82.00 81.15 80.16
3/11/2016 00:00 to 23:10 -- -- -- -- -- --
3/10/2016 23:00 to 22:10 82.04 84.16 85.96 85.46 83.58 83.58
3/10/2016 22:00 to 21:10 84.02 82.02 81.13 79.21 79.49 80.55
3/10/2016 21:00 to 20:10 81.27 82.04 81.84 82.69 82.95 83.11
3/10/2016 20:00 to 19:10 83.35 83.48 83.46 83.05 83.76 83.62
3/10/2016 19:00 to 18:10 82.49 80.30 81.11 80.85 80.65 79.90
3/10/2016 18:00 to 17:10 79.21 79.90 80.81 80.65 81.03 81.07
3/10/2016 17:00 to 16:10 80.71 81.19 81.19 80.87 80.71 80.59
3/10/2016 16:00 to 15:10 80.16 79.84 79.72 79.53 80.00 80.38
3/10/2016 15:00 to 14:10 80.91 80.71 80.65 80.14 79.62 79.78
3/10/2016 14:00 to 13:10 80.97 82.55 84.02 84.63 84.85 84.63
3/10/2016 13:00 to 12:10 84.77 84.49 84.75 84.97 85.38 85.01
3/10/2016 12:00 to 11:10 84.97 84.45 84.41 83.66 83.68 83.50
3/10/2016 11:00 to 10:10 83.64 83.82 83.80 83.48 83.74 83.98
3/10/2016 10:00 to 9:10 83.72 83.23 83.17 83.50 83.27 83.05
3/10/2016 09:00 to 8:10 82.95 82.91 82.97 83.05 83.31 83.13
3/10/2016 08:00 to 7:10 83.41 83.58 83.56 83.60 83.54 83.72
3/10/2016 07:00 to 6:10 83.11 83.03 82.73 82.67 82.49 82.38
3/10/2016 06:00 to 5:10 82.61 82.57 82.53 82.14 82.04 82.26
3/10/2016 05:00 to 4:10 82.40 82.40 82.08 81.60 80.99 80.32
3/10/2016 04:00 to 3:10 80.48 80.50 80.77 80.38 80.63 80.59
3/10/2016 03:00 to 2:10 80.75 80.93 80.18 80.48 81.09 80.67
3/10/2016 02:00 to 1:10 80.65 80.59 80.28 80.50 80.08 80.24
3/10/2016 01:00 to 0:10 80.97 81.72 81.94 81.41 81.43 81.47
3/10/2016 00:00 to 23:10 80.99 81.35 81.68 81.96 82.00 81.86
3/9/2016 23:00 to 22:10 82.14 82.16 82.08 81.94 82.28 82.99
3/9/2016 22:00 to 21:10 83.44 83.90 83.44 83.39 83.27 82.55
3/9/2016 21:00 to 20:10 83.23 83.80 83.58 82.77 83.03 83.07
3/9/2016 20:00 to 19:10 82.59 82.34 82.53 81.11 79.72 79.07
3/9/2016 19:00 to 18:10 79.94 81.31 81.17 81.56 82.02 82.53
3/9/2016 18:00 to 17:10 83.39 84.10 85.35 86.53 88.20 89.48
3/9/2016 17:00 to 16:10 89.94 89.46 89.40 88.65 88.81 89.11
3/9/2016 16:00 to 15:10 88.99 89.11 89.28 89.66 89.88 89.76
3/9/2016 15:00 to 14:10 89.64 88.75 86.91 85.94 87.11 88.51
3/9/2016 14:00 to 13:10 88.75 88.77 90.06 92.19 92.89 93.52
3/9/2016 13:00 to 12:10 93.16 93.03 92.95 92.25 91.48 87.62
3/9/2016 12:00 to 11:10 83.98 84.38 84.43 83.98 83.35 83.56
3/9/2016 11:00 to 10:10 84.20 83.44 86.02 86.57 84.34 83.66
3/9/2016 10:00 to 9:10 84.45 85.68 84.67 84.34 84.32 84.41
3/9/2016 09:00 to 8:10 83.84 84.55 84.45 84.10 83.78 82.77
3/9/2016 08:00 to 7:10 83.39 83.07 82.95 82.75 83.60 83.37
3/9/2016 07:00 to 6:10 83.78 83.52 83.05 83.39 83.90 83.96
3/9/2016 06:00 to 5:10 83.94 82.79 83.05 82.30 83.27 82.99
3/9/2016 05:00 to 4:10 81.39 82.22 81.96 81.72 81.52 80.91
3/9/2016 04:00 to 3:10 81.54 82.12 82.99 82.28 80.93 81.90
3/9/2016 03:00 to 2:10 82.26 82.67 82.38 82.87 83.15 83.54
3/9/2016 02:00 to 1:10 83.41 83.62 83.56 82.73 81.21 81.76
3/9/2016 01:00 to 0:10 81.01 81.58 81.66 81.33 81.70 81.25
3/9/2016 00:00 to 23:10 80.46 80.50 80.18 80.73 81.07 80.91
3/8/2016 23:00 to 22:10 81.45 79.76 79.56 80.81 80.53 81.17
3/8/2016 22:00 to 21:10 79.74 78.97 78.79 78.20 78.71 78.65
3/8/2016 21:00 to 20:10 79.70 79.53 79.68 79.11 79.92 78.34
3/8/2016 20:00 to 19:10 79.68 80.42 80.65 80.71 80.83 80.16
3/8/2016 19:00 to 18:10 81.07 81.56 81.56 81.92 81.58 81.82
3/8/2016 18:00 to 17:10 81.72 81.66 82.38 82.16 82.10 82.06
3/8/2016 17:00 to 16:10 81.80 81.66 80.81 81.01 80.40 80.95
3/8/2016 16:00 to 15:10 80.50 80.99 81.15 81.68 82.34 82.65
3/8/2016 15:00 to 14:10 82.34 82.38 82.69 82.99 82.73 83.58
3/8/2016 14:00 to 13:10 83.60 84.45 85.48 86.02 86.02 86.10
3/8/2016 13:00 to 12:10 85.80 86.24 86.24 86.08 86.32 86.99
3/8/2016 12:00 to 11:10 86.99 86.91 87.19 86.89 85.82 85.54
3/8/2016 11:00 to 10:10 85.98 85.42 85.38 85.52 84.89 85.23
3/8/2016 10:00 to 9:10 85.42 86.12 85.74 85.94 85.90 85.62
3/8/2016 09:00 to 8:10 85.52 85.56 85.23 85.62 86.89 87.56
3/8/2016 08:00 to 7:10 87.38 86.91 86.24 85.88 86.16 86.49
3/8/2016 07:00 to 6:10 87.36 87.03 86.77 86.30 86.35 86.49
3/8/2016 06:00 to 5:10 86.49 86.97 86.77 86.99 87.09 87.29
3/8/2016 05:00 to 4:10 86.95 86.69 86.39 85.86 84.91 84.28
3/8/2016 04:00 to 3:10 84.63 84.51 84.75 85.80 86.20 87.13
3/8/2016 03:00 to 2:10 87.23 87.01 86.32 86.26 85.54 84.91
3/8/2016 02:00 to 1:10 84.24 84.41 84.34 85.11 85.25 87.90
3/8/2016 01:00 to 0:10 89.62 90.33 89.40 89.23 89.07 88.67